Time;durP1;ratioP1;P1;durP2;ratioP2;P2;SDS_P1;SDS_P2;PMS_P1;PMS_P2;Temp;Humidity;BMP_temperature;BMP_pressure;BME280_temperature;BME280_humidity;BME280_pressure;Samples;Min_cycle;Max_cycle;Signal;HPM_P1;HPM_P2
2021/03/25 00:00:24;;;;;;;5.93;4.40;;;11.20;99.90;;;10.64;90.16;101941.16;4154351;28;20555;-73
2021/03/25 00:02:25;;;;;;;10.15;4.30;;;11.10;99.90;;;10.61;90.93;101941.41;4135527;28;20169;-73
2021/03/25 00:04:26;;;;;;;9.35;4.18;;;11.10;99.90;;;10.69;90.67;101929.28;4168403;28;20026;-73
2021/03/25 00:06:28;;;;;;;4.88;3.63;;;11.10;99.90;;;10.68;90.44;101930.22;4152632;28;20038;-73
2021/03/25 00:08:29;;;;;;;9.25;4.70;;;11.20;99.90;;;10.70;90.93;101936.19;4151739;28;20080;-73
2021/03/25 00:10:36;;;;;;;7.65;5.10;;;11.20;99.90;;;10.62;90.93;101938.66;4152834;28;20026;-73
2021/03/25 00:12:37;;;;;;;7.07;4.13;;;11.20;99.90;;;10.59;91.72;101925.72;4152578;28;20025;-73
2021/03/25 00:14:38;;;;;;;8.10;5.30;;;11.20;99.90;;;10.58;92.21;101929.31;4152490;28;20477;-73
2021/03/25 00:16:39;;;;;;;8.00;4.03;;;11.10;99.90;;;10.53;92.43;101931.50;4152308;28;20021;-73
2021/03/25 00:18:40;;;;;;;6.55;4.50;;;11.00;99.90;;;10.66;92.41;101932.16;4152604;28;20038;-73
2021/03/25 00:20:42;;;;;;;7.65;4.70;;;11.10;99.90;;;10.73;91.88;101924.56;4152360;28;20065;-73
2021/03/25 00:22:44;;;;;;;9.45;5.45;;;11.20;99.90;;;10.65;92.17;101927.00;4152314;28;20040;-73
2021/03/25 00:24:44;;;;;;;11.57;5.18;;;11.20;99.90;;;10.69;92.30;101934.56;4152078;28;20028;-73
2021/03/25 00:26:46;;;;;;;10.38;5.40;;;11.20;99.90;;;10.70;91.97;101922.16;4152349;28;20038;-73
2021/03/25 00:28:47;;;;;;;10.57;5.63;;;11.20;99.90;;;10.57;92.75;101934.72;4134928;28;20022;-73
2021/03/25 00:30:48;;;;;;;9.23;5.63;;;11.10;99.90;;;10.50;93.16;101926.47;4152254;28;20102;-74
2021/03/25 00:32:49;;;;;;;6.20;4.57;;;11.10;99.90;;;10.45;93.17;101913.66;4134926;28;20105;-74
2021/03/25 00:34:50;;;;;;;8.27;4.75;;;11.10;99.90;;;10.61;92.96;101933.47;4152330;28;20036;-73
2021/03/25 00:36:51;;;;;;;10.93;4.45;;;11.10;99.90;;;10.63;92.48;101926.31;4134843;28;20058;-73
2021/03/25 00:38:52;;;;;;;10.25;4.18;;;11.10;99.90;;;10.65;92.81;101940.19;4150847;28;20037;-74
2021/03/25 00:40:53;;;;;;;6.22;4.05;;;11.10;99.90;;;10.59;93.34;101936.25;4151987;28;20022;-73
2021/03/25 00:42:54;;;;;;;10.48;4.65;;;11.10;99.90;;;10.43;93.55;101920.00;4151990;28;20496;-74
2021/03/25 00:44:55;;;;;;;7.00;4.05;;;11.10;99.90;;;10.62;93.21;101935.16;4152173;28;20057;-74
2021/03/25 00:46:56;;;;;;;6.28;3.90;;;11.00;99.90;;;10.74;92.16;101931.50;4152055;28;20036;-74
2021/03/25 00:48:57;;;;;;;6.65;4.05;;;11.10;99.90;;;10.54;92.97;101917.34;4152019;28;20045;-74
2021/03/25 00:51:01;;;;;;;8.45;4.25;;;11.10;99.90;;;10.61;93.01;101930.84;4152282;28;20099;-74
2021/03/25 00:53:03;;;;;;;8.65;4.55;;;11.10;99.90;;;10.47;93.61;101927.56;4151988;28;20421;-74
2021/03/25 00:55:06;;;;;;;7.07;4.32;;;11.00;99.90;;;10.45;93.27;101929.47;4151929;28;20050;-74
2021/03/25 00:57:07;;;;;;;7.18;4.30;;;10.90;99.90;;;10.40;93.17;101920.25;4152898;28;20542;-74
2021/03/25 00:59:08;;;;;;;6.68;4.07;;;10.90;99.90;;;10.42;93.46;101934.19;4164226;28;20109;-74
2021/03/25 01:01:09;;;;;;;9.23;5.32;;;10.80;99.90;;;10.39;93.47;101934.44;4152124;28;20546;-74
2021/03/25 01:03:13;;;;;;;8.25;4.82;;;10.80;99.90;;;10.30;93.29;101929.91;4162991;28;20491;-74
2021/03/25 01:05:14;;;;;;;8.43;4.35;;;10.70;99.90;;;10.10;93.52;101938.53;4139175;28;20030;-74
2021/03/25 01:07:28;;;;;;;7.28;4.70;;;10.60;99.90;;;10.13;93.78;101938.31;4152021;28;20085;-74
2021/03/25 01:09:29;;;;;;;7.35;4.10;;;10.50;99.90;;;10.04;94.56;101937.25;4151845;28;20451;-74
2021/03/25 01:11:30;;;;;;;9.38;4.60;;;10.40;99.90;;;9.96;94.53;101927.34;4151787;28;20037;-74
2021/03/25 01:13:52;;;;;;;9.68;5.03;;;10.30;99.90;;;10.03;94.25;101932.97;4151883;28;20018;-74
2021/03/25 01:15:53;;;;;;;10.68;4.10;;;10.30;99.90;;;9.80;94.05;101934.78;4135305;28;20453;-74
2021/03/25 01:17:58;;;;;;;7.18;4.28;;;10.20;99.90;;;9.72;95.20;101941.63;4151930;28;20030;-74
2021/03/25 01:19:59;;;;;;;10.93;5.60;;;10.20;99.90;;;9.87;94.03;101938.63;4154575;28;20038;-74
2021/03/25 01:22:00;;;;;;;5.88;4.18;;;10.10;99.90;;;9.65;94.45;101933.34;4155379;28;20033;-74
2021/03/25 01:24:01;;;;;;;4.93;4.40;;;10.00;99.90;;;9.71;94.68;101935.50;4137708;28;20034;-74
2021/03/25 01:26:03;;;;;;;7.57;5.00;;;10.00;99.90;;;9.56;95.14;101935.91;4155101;28;20033;-74
2021/03/25 01:28:09;;;;;;;7.60;5.20;;;9.90;99.90;;;9.42;95.30;101935.16;4155008;28;20526;-74
2021/03/25 01:30:10;;;;;;;5.72;4.60;;;9.90;99.90;;;9.53;94.64;101928.22;4137877;28;20023;-74
2021/03/25 01:32:11;;;;;;;5.53;4.53;;;9.90;99.90;;;9.45;95.51;101928.81;4155089;28;20084;-74
2021/03/25 01:34:17;;;;;;;8.15;4.93;;;9.80;99.90;;;9.43;95.45;101933.38;4154956;28;20404;-74
2021/03/25 01:36:18;;;;;;;5.68;4.07;;;9.70;99.90;;;9.52;95.05;101931.81;4137405;28;20034;-74
2021/03/25 01:38:23;;;;;;;9.00;4.47;;;9.70;99.90;;;9.52;94.39;101935.28;4154678;28;20087;-74
2021/03/25 01:40:36;;;;;;;9.90;4.65;;;9.70;99.90;;;9.44;95.52;101940.31;4155042;28;20029;-74
2021/03/25 01:42:37;;;;;;;6.10;5.05;;;9.70;99.90;;;9.49;95.07;101930.28;4154833;28;20478;-73
2021/03/25 01:44:40;;;;;;;7.72;4.00;;;9.60;99.90;;;9.30;95.34;101936.13;4154842;28;20034;-74
2021/03/25 01:46:40;;;;;;;6.07;4.28;;;9.60;99.90;;;9.22;96.26;101929.78;4154582;28;20026;-74
2021/03/25 01:48:46;;;;;;;7.88;4.97;;;9.50;99.90;;;9.35;95.15;101935.75;4154766;28;20045;-74
2021/03/25 01:50:47;;;;;;;6.05;4.97;;;9.40;99.90;;;9.16;95.35;101938.97;4154552;28;20030;-74
2021/03/25 01:52:55;;;;;;;5.72;4.22;;;9.40;99.90;;;9.20;95.79;101942.22;4137101;28;20030;-74
2021/03/25 01:55:20;;;;;;;9.00;4.70;;;9.30;99.90;;;9.28;94.42;101939.84;4154520;28;20045;-74
2021/03/25 01:57:38;;;;;;;11.73;4.77;;;9.40;99.90;;;9.18;95.73;101944.13;4157352;28;20033;-74
2021/03/25 02:00:16;;;;;;;10.35;4.68;;;9.30;99.90;;;8.95;95.68;101937.13;4162102;28;20036;-74
2021/03/25 02:02:35;;;;;;;9.70;4.82;;;9.20;99.90;;;8.82;96.02;101917.03;4154756;28;20061;-74
2021/03/25 02:05:06;;;;;;;8.80;4.72;;;9.20;99.90;;;8.93;95.76;101924.09;4138648;28;20105;-74
2021/03/25 02:07:18;;;;;;;8.30;4.57;;;9.10;99.90;;;8.87;96.32;101930.66;4138377;28;20513;-74
2021/03/25 02:09:48;;;;;;;8.18;4.90;;;9.00;99.90;;;8.79;96.64;101933.03;4137589;28;20070;-75
2021/03/25 02:12:24;;;;;;;7.28;4.60;;;8.90;99.90;;;8.79;96.49;101935.66;4138822;28;20034;-74
2021/03/25 02:14:44;;;;;;;7.43;4.05;;;8.90;99.90;;;8.69;96.84;101936.47;4154327;28;20374;-74
2021/03/25 02:17:08;;;;;;;7.75;4.75;;;8.90;99.90;;;8.56;97.84;101941.81;4141546;28;20033;-74
2021/03/25 02:19:57;;;;;;;10.77;5.05;;;8.80;99.90;;;8.59;97.30;101946.00;4153462;28;20072;-74
2021/03/25 02:22:36;;;;;;;10.07;5.28;;;8.80;99.90;;;8.65;95.81;101950.81;4155864;28;20028;-74
2021/03/25 02:25:34;;;;;;;5.55;4.53;;;8.70;99.90;;;8.47;97.27;101942.50;4152594;28;20026;-74
2021/03/25 02:27:55;;;;;;;10.43;5.10;;;8.70;99.90;;;8.34;96.44;101920.66;4155454;28;20029;-74
2021/03/25 02:30:28;;;;;;;6.57;4.93;;;8.60;99.90;;;8.38;96.59;101932.66;4154057;28;20512;-74
2021/03/25 02:32:35;;;;;;;9.98;4.60;;;8.60;99.90;;;8.35;97.49;101938.13;4153585;28;20124;-74
2021/03/25 02:34:42;;;;;;;8.57;5.28;;;8.50;99.90;;;8.52;96.65;101935.09;4153240;28;20085;-74
2021/03/25 02:37:08;;;;;;;10.95;5.05;;;8.60;99.90;;;8.45;96.64;101940.94;4136708;28;20028;-74
2021/03/25 02:39:16;;;;;;;10.00;4.30;;;8.60;99.90;;;8.37;97.28;101935.38;4169898;28;20033;-74
2021/03/25 02:41:27;;;;;;;8.02;4.70;;;8.50;99.90;;;8.29;97.12;101928.06;4170393;28;20032;-74
2021/03/25 02:44:01;;;;;;;7.70;4.85;;;8.50;99.90;;;8.24;97.50;101936.25;4153177;28;20049;-74
2021/03/25 02:46:25;;;;;;;9.40;5.18;;;8.40;99.90;;;8.25;96.31;101923.94;4154054;28;20544;-74
2021/03/25 02:48:28;;;;;;;5.80;4.70;;;8.40;99.90;;;8.34;96.34;101926.78;4170320;28;20112;-74
2021/03/25 02:50:34;;;;;;;8.30;4.70;;;8.40;99.90;;;8.19;96.54;101932.28;4152601;28;20028;-74
2021/03/25 02:52:43;;;;;;;9.77;4.93;;;8.30;99.90;;;8.19;97.49;101937.53;4153095;28;20026;-74
2021/03/25 02:54:45;;;;;;;8.50;4.63;;;8.30;99.90;;;8.00;97.20;101911.78;4136481;28;20022;-74
2021/03/25 02:56:50;;;;;;;8.25;4.07;;;8.30;99.90;;;8.14;97.12;101939.66;4152621;28;20038;-74
2021/03/25 02:59:05;;;;;;;8.20;4.55;;;8.20;99.90;;;8.03;96.68;101943.09;4167804;28;20052;-74
2021/03/25 03:01:15;;;;;;;10.80;5.65;;;8.20;99.90;;;8.02;96.75;101935.28;4137212;28;20097;-74
2021/03/25 03:03:22;;;;;;;7.80;4.10;;;8.10;99.90;;;8.01;96.91;101942.34;4149055;28;20128;-74
2021/03/25 03:05:26;;;;;;;10.10;4.90;;;8.20;99.90;;;7.91;96.60;101922.94;4138058;28;20412;-74
2021/03/25 03:07:47;;;;;;;6.50;4.28;;;8.10;99.90;;;7.94;96.95;101932.38;4136319;28;20536;-74
2021/03/25 03:09:55;;;;;;;8.68;4.22;;;8.10;99.90;;;7.92;96.91;101934.25;4136987;28;20409;-74
2021/03/25 03:12:00;;;;;;;8.18;4.20;;;8.10;99.90;;;7.82;96.86;101934.91;4136364;28;20102;-74
2021/03/25 03:14:36;;;;;;;9.75;4.22;;;8.10;99.90;;;7.74;96.29;101932.00;4136471;28;20026;-74
2021/03/25 03:16:50;;;;;;;9.40;4.50;;;8.00;99.90;;;7.64;96.92;101931.00;4153387;28;20030;-74
2021/03/25 03:19:13;;;;;;;7.45;4.00;;;7.90;99.90;;;7.66;96.89;101936.97;4136900;28;20027;-74
2021/03/25 03:21:32;;;;;;;5.90;4.13;;;7.80;99.90;;;7.74;95.64;101932.00;4137025;28;20097;-74
2021/03/25 03:23:35;;;;;;;10.20;5.03;;;7.80;99.90;;;7.67;94.93;101925.53;4136593;28;20041;-74
2021/03/25 03:25:36;;;;;;;9.75;5.43;;;7.80;99.90;;;7.70;95.02;101933.19;4135950;28;20034;-74
2021/03/25 03:27:53;;;;;;;10.25;4.45;;;7.70;99.90;;;7.63;95.07;101928.47;4135919;28;20512;-74
2021/03/25 03:29:55;;;;;;;7.95;5.07;;;7.70;99.90;;;7.58;95.77;101933.22;4136287;28;20064;-74
2021/03/25 03:32:34;;;;;;;8.90;4.53;;;7.70;99.90;;;7.53;95.56;101937.91;4135815;28;20420;-74
2021/03/25 03:34:43;;;;;;;12.43;4.97;;;7.70;99.90;;;7.54;95.34;101936.97;4131692;28;20052;-74
2021/03/25 03:36:48;;;;;;;8.20;4.85;;;7.70;99.90;;;7.51;95.55;101938.03;4135982;28;20034;-74
2021/03/25 03:39:14;;;;;;;8.65;4.80;;;7.60;99.90;;;7.56;95.89;101930.66;4152801;28;20029;-74
2021/03/25 03:41:23;;;;;;;11.93;5.25;;;7.60;99.90;;;7.47;96.13;101933.94;4139196;28;20041;-74
2021/03/25 03:43:26;;;;;;;7.68;4.53;;;7.60;99.90;;;7.41;96.34;101929.13;4135217;28;20057;-74
2021/03/25 03:45:29;;;;;;;6.13;4.40;;;7.60;99.90;;;7.52;95.15;101931.84;4135632;28;20038;-74
2021/03/25 03:47:33;;;;;;;10.23;4.25;;;7.60;99.90;;;7.44;96.42;101934.16;4119283;28;20033;-74
2021/03/25 03:49:55;;;;;;;9.95;5.25;;;7.60;99.90;;;7.37;96.32;101926.81;4135958;28;20489;-74
2021/03/25 03:52:23;;;;;;;9.02;4.82;;;7.60;99.90;;;7.57;95.78;101928.88;4152983;28;20026;-74
2021/03/25 03:54:24;;;;;;;9.90;4.57;;;7.60;99.90;;;7.40;96.25;101927.47;4152839;28;20022;-74
2021/03/25 03:56:44;;;;;;;8.48;4.43;;;7.60;99.90;;;7.49;96.22;101925.97;4135343;28;20054;-74
2021/03/25 03:58:56;;;;;;;11.18;5.30;;;7.60;99.90;;;7.35;96.77;101928.72;4165769;28;20092;-74
2021/03/25 04:01:22;;;;;;;7.78;3.88;;;7.50;99.90;;;7.38;95.62;101921.44;4135728;28;20026;-74
2021/03/25 04:03:28;;;;;;;5.47;4.05;;;7.50;99.90;;;7.31;97.07;101928.09;4151023;28;20120;-74
2021/03/25 04:05:37;;;;;;;9.25;4.05;;;7.50;99.90;;;7.33;96.13;101922.72;4155952;28;20112;-74
2021/03/25 04:07:44;;;;;;;5.97;4.03;;;7.50;99.90;;;7.29;96.58;101924.72;4152053;28;20030;-74
2021/03/25 04:09:57;;;;;;;9.00;4.25;;;7.50;99.90;;;7.27;96.94;101931.88;4151920;28;20100;-74
2021/03/25 04:12:08;;;;;;;10.02;4.43;;;7.40;99.90;;;7.26;96.58;101940.66;4152059;28;20030;-74
2021/03/25 04:14:21;;;;;;;9.73;4.18;;;7.40;99.90;;;7.12;97.07;101939.00;4151973;28;20018;-74
2021/03/25 04:16:29;;;;;;;7.65;4.18;;;7.40;99.90;;;7.08;96.61;101927.03;4151994;28;20040;-74
2021/03/25 04:18:47;;;;;;;7.78;4.35;;;7.30;99.90;;;7.26;96.24;101930.19;4168959;28;20026;-74
2021/03/25 04:20:56;;;;;;;8.25;3.83;;;7.30;99.90;;;7.29;96.38;101948.34;4152057;28;20041;-74
2021/03/25 04:23:05;;;;;;;8.40;4.05;;;7.30;99.90;;;7.24;97.09;101953.06;4151387;28;20092;-74
2021/03/25 04:25:31;;;;;;;8.05;4.10;;;7.40;99.90;;;7.34;95.88;101951.50;4168901;28;20040;-74
2021/03/25 04:27:56;;;;;;;5.95;4.57;;;7.40;99.90;;;7.28;96.93;101951.94;4152596;28;20093;-74
2021/03/25 04:30:05;;;;;;;;;;;7.40;99.90;;;7.36;95.50;101949.59;4153650;28;20057;-74
2021/03/25 04:32:06;;;;;;;6.38;3.70;;;7.40;99.90;;;7.29;96.03;101947.53;4151528;28;20000;-74
2021/03/25 04:34:08;;;;;;;9.35;4.75;;;7.40;99.90;;;7.23;96.73;101948.75;4151130;28;20045;-74
2021/03/25 04:36:20;;;;;;;9.48;4.05;;;7.40;99.90;;;7.30;95.81;101947.41;4134662;28;20033;-74
2021/03/25 04:38:35;;;;;;;8.98;4.78;;;7.40;99.90;;;7.27;95.95;101942.38;4151026;28;20112;-75
2021/03/25 04:40:37;;;;;;;;;;;7.40;99.90;;;7.30;95.96;101944.78;4151741;28;20108;-74
2021/03/25 04:42:46;;;;;;;8.85;4.20;;;7.40;99.90;;;7.49;93.81;101939.94;4134750;28;19910;-74
2021/03/25 04:44:54;;;;;;;7.45;3.45;;;7.50;99.90;;;7.54;93.93;101950.94;4151270;28;20030;-74
2021/03/25 04:47:25;;;;;;;12.55;4.53;;;7.50;99.90;;;7.38;95.91;101946.88;4151455;28;20033;-74
2021/03/25 04:49:42;;;;;;;10.25;4.43;;;7.50;99.90;;;7.29;94.88;101950.97;4168596;28;20089;-74
2021/03/25 04:51:43;;;;;;;9.77;4.95;;;7.40;99.90;;;7.26;95.27;101940.66;4151424;28;20030;-74
2021/03/25 04:53:45;;;;;;;9.93;4.15;;;7.40;99.90;;;7.25;95.39;101949.50;4150324;28;20594;-74
2021/03/25 04:55:46;;;;;;;7.80;4.03;;;7.40;99.90;;;7.16;95.76;101950.13;4168264;28;20111;-74
2021/03/25 04:58:00;;;;;;;8.48;4.00;;;7.40;99.90;;;7.18;95.63;101950.88;4168393;28;20120;-74
2021/03/25 05:00:10;;;;;;;8.70;4.38;;;7.30;99.90;;;7.25;94.43;101946.88;4155568;28;20030;-74
2021/03/25 05:02:12;;;;;;;11.25;5.22;;;7.30;99.90;;;7.16;94.85;101952.75;4118479;28;20134;-74
2021/03/25 05:04:13;;;;;;;9.50;5.32;;;7.30;99.90;;;7.01;94.77;101930.19;4150822;28;20037;-74
2021/03/25 05:06:31;;;;;;;6.38;3.72;;;7.30;99.90;;;6.94;94.85;101947.28;4152107;28;20444;-74
2021/03/25 05:08:34;;;;;;;9.07;4.28;;;7.20;99.90;;;6.92;94.84;101954.41;4134928;28;20057;-74
2021/03/25 05:10:43;;;;;;;7.50;4.13;;;7.10;99.90;;;6.92;94.75;101954.41;4134617;28;20109;-74
2021/03/25 05:12:44;;;;;;;7.85;4.32;;;7.10;99.90;;;6.84;95.30;101965.41;4134992;28;20090;-74
2021/03/25 05:14:51;;;;;;;7.93;4.00;;;7.00;99.90;;;6.83;94.47;101958.50;4151974;28;20362;-74
2021/03/25 05:17:06;;;;;;;8.63;3.63;;;7.00;99.90;;;6.82;93.28;101961.22;4134946;28;20030;-74
2021/03/25 05:19:35;;;;;;;6.05;3.92;;;6.90;99.90;;;6.80;92.05;101963.94;4152076;28;20038;-74
2021/03/25 05:22:05;;;;;;;6.97;3.70;;;6.90;99.90;;;6.63;92.81;101967.66;4151922;28;20524;-74
2021/03/25 05:24:38;;;;;;;5.38;3.67;;;6.90;99.90;;;6.49;93.45;101967.75;4146086;28;20073;-74
2021/03/25 05:26:47;;;;;;;7.65;5.05;;;6.80;99.90;;;6.40;93.17;101968.34;4151947;28;20024;-74
2021/03/25 05:29:00;;;;;;;7.28;4.30;;;6.70;99.90;;;6.34;92.97;101960.03;4134923;28;20481;-74
2021/03/25 05:31:03;;;;;;;9.40;5.20;;;6.60;99.90;;;6.36;92.33;101958.97;4134915;28;20097;-74
2021/03/25 05:33:16;;;;;;;8.23;4.47;;;6.60;99.90;;;6.32;92.50;101978.47;4134308;28;20044;-75
2021/03/25 05:35:27;;;;;;;7.65;4.65;;;6.50;99.90;;;6.22;92.79;101980.00;4134695;28;20505;-75
2021/03/25 05:37:28;;;;;;;12.18;5.85;;;6.50;99.90;;;6.20;93.80;101984.50;4118499;28;20057;-75
2021/03/25 05:39:33;;;;;;;8.27;4.78;;;6.40;99.90;;;6.24;92.83;101982.53;4133958;28;20082;-75
2021/03/25 05:42:11;;;;;;;8.40;4.63;;;6.40;99.90;;;6.21;92.84;101980.94;4134419;28;20026;-74
2021/03/25 05:44:41;;;;;;;9.52;5.45;;;6.40;99.90;;;6.04;92.56;101983.78;4136669;28;20034;-74
2021/03/25 05:47:19;;;;;;;8.95;5.53;;;6.30;99.90;;;6.02;92.89;101983.03;4132409;28;20050;-74
2021/03/25 05:50:06;;;;;;;9.57;4.72;;;6.30;99.90;;;5.96;93.76;101984.28;4151707;28;20099;-74
2021/03/25 05:52:53;;;;;;;11.25;6.28;;;6.20;99.90;;;5.98;93.08;101986.78;4136525;28;20031;-74
2021/03/25 05:55:23;;;;;;;10.98;5.07;;;6.20;99.90;;;6.13;91.93;101988.44;4133893;28;20047;-74
2021/03/25 05:57:32;;;;;;;10.90;5.63;;;6.20;99.90;;;6.09;91.58;101981.72;4154774;28;20026;-74
2021/03/25 06:00:00;;;;;;;11.40;6.13;;;6.20;99.90;;;6.12;91.50;101992.81;4167989;28;20029;-74
2021/03/25 06:02:25;;;;;;;9.10;5.38;;;6.20;99.90;;;5.93;92.15;101994.09;4152013;28;20037;-75
2021/03/25 06:04:37;;;;;;;8.60;5.05;;;6.20;99.90;;;5.93;93.22;102007.19;4150544;28;20022;-75
2021/03/25 06:07:08;;;;;;;6.65;4.85;;;6.20;99.90;;;5.92;93.23;102005.50;4119664;28;20047;-75
2021/03/25 06:09:17;;;;;;;11.60;5.18;;;6.20;99.90;;;5.79;93.12;101988.84;4154328;28;20026;-75
2021/03/25 06:11:48;;;;;;;6.13;4.95;;;6.10;99.90;;;5.99;92.71;102001.56;4137039;28;20509;-75
2021/03/25 06:14:13;;;;;;;9.73;5.47;;;6.20;99.90;;;6.08;92.09;102003.63;4141608;28;20116;-75
2021/03/25 06:17:07;;;;;;;8.10;4.95;;;6.20;99.90;;;5.92;92.31;102000.25;4159015;28;20089;-75
2021/03/25 06:19:21;;;;;;;10.48;5.07;;;6.20;99.90;;;5.81;93.21;102003.53;4154435;28;20030;-74
2021/03/25 06:22:19;;;;;;;6.80;4.72;;;6.10;99.90;;;5.74;94.14;101998.75;4156145;28;20575;-74
2021/03/25 06:25:09;;;;;;;7.38;4.50;;;6.10;99.90;;;5.82;94.28;102015.69;4151799;28;20109;-74
2021/03/25 06:28:05;;;;;;;9.23;4.75;;;6.10;99.90;;;5.85;94.03;101998.94;4166958;28;20400;-74
2021/03/25 06:30:21;;;;;;;8.15;4.70;;;6.10;99.90;;;5.93;93.98;102009.81;4146830;28;20102;-74
2021/03/25 06:32:46;;;;;;;8.75;5.85;;;6.20;99.90;;;5.96;93.40;102007.00;4151904;28;20057;-74
2021/03/25 06:35:10;;;;;;;11.82;6.07;;;6.20;99.90;;;6.02;93.15;102010.06;4170254;28;20037;-74
2021/03/25 06:37:37;;;;;;;9.60;6.75;;;6.20;99.90;;;6.06;93.32;102018.59;4138759;28;20035;-73
2021/03/25 06:39:53;;;;;;;9.52;4.65;;;6.30;99.90;;;6.03;93.67;102018.78;4153415;28;20489;-74
2021/03/25 06:42:31;;;;;;;7.90;5.45;;;6.30;99.90;;;5.96;93.98;102017.47;4169872;28;20056;-73
2021/03/25 06:44:50;;;;;;;8.75;4.93;;;6.30;99.90;;;5.84;94.50;102005.09;4170108;28;20104;-73
2021/03/25 06:47:04;;;;;;;9.13;6.05;;;6.30;99.90;;;6.05;94.22;102024.75;4137075;28;20034;-73
2021/03/25 06:49:19;;;;;;;8.45;5.63;;;6.40;99.90;;;6.01;94.56;102023.25;4153341;28;20022;-74
2021/03/25 06:51:32;;;;;;;10.80;5.60;;;6.30;99.90;;;6.04;94.69;102021.28;4136871;28;20027;-73
2021/03/25 06:53:34;;;;;;;11.25;6.65;;;6.40;99.90;;;6.35;93.00;102025.44;4153361;28;20053;-73
2021/03/25 06:55:35;;;;;;;10.88;7.45;;;6.50;99.90;;;6.31;93.71;102026.56;4169743;28;20049;-73
2021/03/25 06:57:57;;;;;;;14.60;8.10;;;6.60;99.90;;;6.42;93.31;102026.72;4169970;28;20027;-73
2021/03/25 06:59:58;;;;;;;12.23;8.23;;;6.70;99.90;;;6.44;93.33;102017.00;4157666;28;20108;-73
2021/03/25 07:02:23;;;;;;;10.52;7.20;;;6.80;99.90;;;6.52;93.70;102033.06;4136117;28;20026;-73
2021/03/25 07:04:29;;;;;;;12.25;6.25;;;6.80;99.90;;;6.52;94.07;102027.81;4169889;28;20096;-73
2021/03/25 07:06:35;;;;;;;9.80;7.18;;;6.90;99.90;;;6.56;94.52;102031.94;4136103;28;20035;-73
2021/03/25 07:08:36;;;;;;;9.43;6.70;;;6.90;99.90;;;6.65;94.42;102033.97;4135944;28;20026;-72
2021/03/25 07:10:36;;;;;;;11.18;6.65;;;7.00;99.90;;;6.63;94.14;102021.91;4135917;28;20019;-72
2021/03/25 07:12:46;;;;;;;11.73;6.85;;;7.10;99.90;;;6.77;93.96;102032.34;4166456;28;20026;-73
2021/03/25 07:14:50;;;;;;;8.55;6.10;;;7.10;99.90;;;6.78;93.58;102031.38;4169662;28;20045;-74
2021/03/25 07:16:51;;;;;;;10.25;6.18;;;7.10;99.90;;;6.89;93.77;102036.78;4135630;28;20030;-74
2021/03/25 07:19:11;;;;;;;8.48;5.22;;;7.30;99.90;;;6.96;93.16;102039.84;4169811;28;20052;-74
2021/03/25 07:21:26;;;;;;;6.70;5.97;;;7.30;99.90;;;7.09;92.89;102038.06;4169372;28;20030;-74
2021/03/25 07:23:41;;;;;;;10.13;5.88;;;7.40;99.90;;;7.12;92.02;102043.97;4169407;28;20025;-73
2021/03/25 07:25:47;;;;;;;8.30;5.00;;;7.40;99.90;;;7.14;92.24;102033.34;4154047;28;20049;-73
2021/03/25 07:27:49;;;;;;;5.93;5.00;;;7.60;99.90;;;7.18;92.30;102040.94;4169542;28;20021;-74
2021/03/25 07:30:06;;;;;;;9.00;5.22;;;7.60;99.90;;;7.24;92.73;102039.66;4152051;28;20037;-73
2021/03/25 07:32:08;;;;;;;7.05;5.50;;;7.60;99.90;;;7.34;93.32;102037.28;4152563;28;20022;-73
2021/03/25 07:34:09;;;;;;;11.60;5.32;;;7.70;99.90;;;7.35;93.02;102038.97;4169517;28;20032;-73
2021/03/25 07:36:14;;;;;;;7.55;5.53;;;7.80;99.90;;;7.47;92.83;102043.34;4151835;28;20025;-73
2021/03/25 07:38:30;;;;;;;10.85;6.53;;;7.90;99.90;;;7.61;93.31;102038.88;4151797;28;20038;-74
2021/03/25 07:40:36;;;;;;;11.30;6.20;;;8.00;99.90;;;7.69;92.80;102033.94;4169304;28;20029;-73
2021/03/25 07:42:38;;;;;;;17.67;6.40;;;8.00;99.90;;;7.76;92.82;102040.41;4133343;28;20045;-74
2021/03/25 07:44:43;;;;;;;12.27;6.97;;;8.10;99.90;;;7.63;93.05;102025.63;4156505;28;20032;-73
2021/03/25 07:46:44;;;;;;;13.63;7.00;;;8.20;99.90;;;7.72;93.53;102038.13;4167470;28;20030;-73
2021/03/25 07:49:15;;;;;;;12.95;6.22;;;8.20;99.90;;;7.78;94.34;102033.28;4168254;28;20076;-73
2021/03/25 07:51:16;;;;;;;13.77;7.82;;;8.30;99.90;;;7.93;93.18;102041.03;4169404;28;20496;-73
2021/03/25 07:53:21;;;;;;;14.90;5.75;;;8.40;99.90;;;8.06;92.86;102036.63;4169200;28;20105;-73
2021/03/25 07:55:30;;;;;;;10.48;4.53;;;8.50;99.90;;;8.08;93.06;102030.28;4166665;28;20049;-73
2021/03/25 07:57:43;;;;;;;8.73;4.10;;;8.60;99.90;;;8.11;93.72;102040.59;4169124;28;20060;-73
2021/03/25 07:59:51;;;;;;;10.13;4.90;;;8.60;99.90;;;8.18;94.06;102033.94;4160097;28;20405;-73
2021/03/25 08:01:52;;;;;;;12.02;5.15;;;8.70;99.90;;;8.20;94.02;102039.09;4152815;28;20053;-74
2021/03/25 08:03:58;;;;;;;7.50;4.32;;;8.70;99.90;;;8.23;95.21;102038.88;4169256;28;20026;-73
2021/03/25 08:06:36;;;;;;;11.65;4.20;;;8.80;99.90;;;8.33;94.36;102042.56;4135202;28;20030;-73
2021/03/25 08:08:38;;;;;;;8.60;4.38;;;8.80;99.90;;;8.42;94.42;102046.34;4152297;28;20026;-73
2021/03/25 08:10:43;;;;;;;10.60;4.40;;;8.90;99.90;;;8.42;94.79;102036.66;4152614;28;20026;-73
2021/03/25 08:12:44;;;;;;;8.63;4.68;;;9.00;99.90;;;8.57;94.87;102046.03;4152528;28;20123;-73
2021/03/25 08:14:45;;;;;;;21.42;14.35;;;9.10;99.90;;;8.63;93.97;102053.50;4152509;28;20034;-73
2021/03/25 08:16:50;;;;;;;26.55;18.85;;;9.20;99.90;;;8.78;93.69;102047.09;4152393;28;20036;-73
2021/03/25 08:19:00;;;;;;;23.42;16.05;;;9.30;99.90;;;8.82;93.78;102053.84;4135213;28;20087;-73
2021/03/25 08:21:35;;;;;;;19.08;16.08;;;9.40;99.90;;;8.82;94.44;102043.31;4152567;28;20056;-73
2021/03/25 08:23:45;;;;;;;15.45;10.98;;;9.40;99.90;;;8.99;93.87;102054.41;4148368;28;20050;-73
2021/03/25 08:26:16;;;;;;;14.77;11.20;;;9.50;99.90;;;9.04;94.06;102049.63;4152467;28;20030;-73
2021/03/25 08:28:43;;;;;;;12.88;10.02;;;9.60;99.90;;;9.12;94.28;102041.97;4147915;28;20040;-73
2021/03/25 08:30:46;;;;;;;13.48;9.57;;;9.70;99.90;;;9.19;94.07;102051.09;4135004;28;20030;-73
2021/03/25 08:33:07;;;;;;;15.88;9.43;;;9.80;99.90;;;9.30;94.17;102048.50;4152152;28;20089;-73
2021/03/25 08:35:36;;;;;;;12.80;8.23;;;9.90;99.90;;;9.38;93.69;102052.22;4152485;28;20024;-73
2021/03/25 08:38:09;;;;;;;12.60;6.88;;;10.00;99.90;;;9.52;93.31;102053.81;4135771;28;20030;-73
2021/03/25 08:40:56;;;;;;;17.40;7.57;;;10.00;99.90;;;9.51;93.65;102051.28;4152286;28;20084;-73
2021/03/25 08:43:02;;;;;;;13.35;7.50;;;10.10;99.90;;;9.56;93.73;102055.25;4152491;28;20116;-73
2021/03/25 08:45:32;;;;;;;12.00;4.70;;;10.20;99.90;;;9.69;93.02;102053.38;4118896;28;20076;-73
2021/03/25 08:47:48;;;;;;;10.30;3.80;;;10.30;99.90;;;9.86;92.43;102052.88;4136024;28;20382;-73
2021/03/25 08:50:28;;;;;;;9.93;3.38;;;10.40;99.90;;;9.99;92.83;102052.78;4135489;28;20042;-73
2021/03/25 08:52:38;;;;;;;14.05;3.00;;;10.50;99.90;;;10.11;92.50;102051.81;4151799;28;20064;-73
2021/03/25 08:54:48;;;;;;;5.97;2.42;;;10.70;99.90;;;10.18;91.90;102055.69;4134986;28;20117;-73
2021/03/25 08:57:17;;;;;;;8.57;3.15;;;10.80;99.90;;;10.25;92.28;102056.00;4134983;28;20080;-73
2021/03/25 08:59:41;;;;;;;11.30;3.08;;;10.90;99.90;;;10.24;92.16;102057.00;4143943;28;20042;-73
2021/03/25 09:01:51;;;;;;;12.80;3.95;;;10.90;99.90;;;10.27;91.19;102054.13;4135166;28;20026;-73
2021/03/25 09:04:01;;;;;;;13.95;3.33;;;11.00;99.90;;;10.36;91.12;102056.03;4163105;28;20033;-73
2021/03/25 09:06:15;;;;;;;6.05;2.15;;;11.00;99.90;;;10.50;90.85;102053.09;4151005;28;20096;-73
2021/03/25 09:08:21;;;;;;;13.68;2.63;;;11.20;99.90;;;10.48;91.11;102047.13;4150334;28;20056;-73
2021/03/25 09:10:37;;;;;;;9.15;2.67;;;11.20;99.90;;;10.60;90.46;102059.31;4151349;28;20033;-73
2021/03/25 09:12:38;;;;;;;10.88;2.60;;;11.30;99.90;;;10.64;90.45;102052.81;4168321;28;20029;-73
2021/03/25 09:14:39;;;;;;;10.30;3.60;;;11.40;99.90;;;10.65;90.14;102057.16;4168290;28;20547;-73
2021/03/25 09:16:40;;;;;;;7.80;2.33;;;11.40;99.90;;;10.69;89.71;102058.59;4168075;28;20396;-73
2021/03/25 09:18:45;;;;;;;9.13;2.85;;;11.40;99.90;;;10.65;90.00;102046.59;4150796;28;20081;-73